Gordon, Ohio
Current Conditions -  °F | °C
As of 5:03 PM on Monday 24 Nov 2014 (Local Time) from KDAY Reporting Station
Overcast Overcast  
Wind Chill: 34°   Ceiling: 3300
Heat Index: 43°   Visibility: 10mi
Dew Point: 34°   Wind: 23mph
Humidity: 71%   Direction: 220°SW
Pressure: 29.7"   Gusts: 37mph
Location:  39.93°N, 84.51°W
Report Text: KDAY 242203Z 22020G32KT 10SM OVC033 06/01 A2970 RMK AO2 PK WND 22032/2159 T00610011
Loading
Personal Weather Stations






























Interactive Weather Map New forecast layout! Learn more

10-Day Weather Forecast

Advertisements
Track Severe Weather on mobile